Terminal Aerodrome Forecast
Issued by NWS

Home | Current Version | Previous Version | Text Only | Print | Product List | Glossary On
Versions: 1 2 3 4 5 6 7 8 9 10 11 12
000
FTUS46 KLOX 190552
TAFBUR
TAF
KBUR 190552Z 1906/2006 VRB03KT P6SM BKN150
     FM191200 VRB03KT P6SM OVC015
     FM191800 17008KT P6SM BKN025 BKN050
     FM192300 23008KT P6SM BKN050
     FM200300 32008KT P6SM BKN050=

USA.gov is the U.S. government's official web portal to all federal, state and local government web resources and services.